sensor_id;sensor_type;location;lat;lon;timestamp;P1;durP1;ratioP1;P2;durP2;ratioP2
11034;SDS011;5571;48.110;-1.706;2023-04-06T00:00:07;22.50;;;18.90;;
11034;SDS011;5571;48.110;-1.706;2023-04-06T00:02:34;24.90;;;19.50;;
11034;SDS011;5571;48.110;-1.706;2023-04-06T00:04:59;24.60;;;18.50;;
11034;SDS011;5571;48.110;-1.706;2023-04-06T00:07:25;24.53;;;19.17;;
11034;SDS011;5571;48.110;-1.706;2023-04-06T00:09:53;23.20;;;18.63;;
11034;SDS011;5571;48.110;-1.706;2023-04-06T00:12:18;23.07;;;19.33;;
11034;SDS011;5571;48.110;-1.706;2023-04-06T00:14:44;23.50;;;19.40;;
11034;SDS011;5571;48.110;-1.706;2023-04-06T00:17:09;25.37;;;19.33;;
11034;SDS011;5571;48.110;-1.706;2023-04-06T00:19:35;24.07;;;20.27;;
11034;SDS011;5571;48.110;-1.706;2023-04-06T00:22:01;28.27;;;20.30;;
11034;SDS011;5571;48.110;-1.706;2023-04-06T00:24:27;26.90;;;19.67;;
11034;SDS011;5571;48.110;-1.706;2023-04-06T00:26:52;24.83;;;19.47;;
11034;SDS011;5571;48.110;-1.706;2023-04-06T00:29:18;23.03;;;19.50;;
11034;SDS011;5571;48.110;-1.706;2023-04-06T00:31:44;25.67;;;20.90;;
11034;SDS011;5571;48.110;-1.706;2023-04-06T00:34:10;26.90;;;20.67;;
11034;SDS011;5571;48.110;-1.706;2023-04-06T00:36:36;26.17;;;21.53;;
11034;SDS011;5571;48.110;-1.706;2023-04-06T00:39:01;25.33;;;21.30;;
11034;SDS011;5571;48.110;-1.706;2023-04-06T00:41:27;26.00;;;20.10;;
11034;SDS011;5571;48.110;-1.706;2023-04-06T00:43:53;25.97;;;19.90;;
11034;SDS011;5571;48.110;-1.706;2023-04-06T00:46:19;26.27;;;20.93;;
11034;SDS011;5571;48.110;-1.706;2023-04-06T00:48:45;24.93;;;21.00;;
11034;SDS011;5571;48.110;-1.706;2023-04-06T00:51:11;26.73;;;20.13;;
11034;SDS011;5571;48.110;-1.706;2023-04-06T00:53:37;24.53;;;20.30;;
11034;SDS011;5571;48.110;-1.706;2023-04-06T00:56:02;26.60;;;20.33;;
11034;SDS011;5571;48.110;-1.706;2023-04-06T00:58:28;27.33;;;20.67;;
11034;SDS011;5571;48.110;-1.706;2023-04-06T01:00:54;28.13;;;20.37;;
11034;SDS011;5571;48.110;-1.706;2023-04-06T01:03:20;24.83;;;20.07;;
11034;SDS011;5571;48.110;-1.706;2023-04-06T01:05:46;25.30;;;19.70;;
11034;SDS011;5571;48.110;-1.706;2023-04-06T01:08:11;24.97;;;20.23;;
11034;SDS011;5571;48.110;-1.706;2023-04-06T01:10:37;27.03;;;20.67;;
11034;SDS011;5571;48.110;-1.706;2023-04-06T01:13:03;25.10;;;20.63;;
11034;SDS011;5571;48.110;-1.706;2023-04-06T01:15:28;26.17;;;20.57;;
11034;SDS011;5571;48.110;-1.706;2023-04-06T01:17:55;25.43;;;19.90;;
11034;SDS011;5571;48.110;-1.706;2023-04-06T01:20:20;24.80;;;19.50;;
11034;SDS011;5571;48.110;-1.706;2023-04-06T01:22:46;25.80;;;20.97;;
11034;SDS011;5571;48.110;-1.706;2023-04-06T01:25:12;26.77;;;20.80;;
11034;SDS011;5571;48.110;-1.706;2023-04-06T01:27:37;27.17;;;20.93;;
11034;SDS011;5571;48.110;-1.706;2023-04-06T01:30:03;29.57;;;21.33;;
11034;SDS011;5571;48.110;-1.706;2023-04-06T01:32:29;27.03;;;19.70;;
11034;SDS011;5571;48.110;-1.706;2023-04-06T01:34:55;28.90;;;21.13;;
11034;SDS011;5571;48.110;-1.706;2023-04-06T01:37:20;30.47;;;22.37;;
11034;SDS011;5571;48.110;-1.706;2023-04-06T01:39:46;26.77;;;21.53;;
11034;SDS011;5571;48.110;-1.706;2023-04-06T01:42:12;26.63;;;21.10;;
11034;SDS011;5571;48.110;-1.706;2023-04-06T01:44:37;25.50;;;21.37;;
11034;SDS011;5571;48.110;-1.706;2023-04-06T01:47:03;28.70;;;21.80;;
11034;SDS011;5571;48.110;-1.706;2023-04-06T01:49:29;27.00;;;21.47;;
11034;SDS011;5571;48.110;-1.706;2023-04-06T01:51:55;26.17;;;21.03;;
11034;SDS011;5571;48.110;-1.706;2023-04-06T01:54:20;28.20;;;21.77;;
11034;SDS011;5571;48.110;-1.706;2023-04-06T01:56:46;27.77;;;21.43;;
11034;SDS011;5571;48.110;-1.706;2023-04-06T01:59:12;27.10;;;21.70;;
11034;SDS011;5571;48.110;-1.706;2023-04-06T02:01:38;26.97;;;22.03;;
11034;SDS011;5571;48.110;-1.706;2023-04-06T02:04:03;29.67;;;22.27;;
11034;SDS011;5571;48.110;-1.706;2023-04-06T02:06:29;27.97;;;21.67;;
11034;SDS011;5571;48.110;-1.706;2023-04-06T02:08:55;34.23;;;25.13;;
11034;SDS011;5571;48.110;-1.706;2023-04-06T02:11:21;27.03;;;21.23;;
11034;SDS011;5571;48.110;-1.706;2023-04-06T02:13:46;35.20;;;22.80;;
11034;SDS011;5571;48.110;-1.706;2023-04-06T02:16:12;23.80;;;20.23;;
11034;SDS011;5571;48.110;-1.706;2023-04-06T02:18:38;26.53;;;21.67;;
11034;SDS011;5571;48.110;-1.706;2023-04-06T02:21:03;25.60;;;19.70;;
11034;SDS011;5571;48.110;-1.706;2023-04-06T02:23:29;25.50;;;19.70;;
11034;SDS011;5571;48.110;-1.706;2023-04-06T02:25:55;26.40;;;19.87;;
11034;SDS011;5571;48.110;-1.706;2023-04-06T02:28:20;24.80;;;19.87;;
11034;SDS011;5571;48.110;-1.706;2023-04-06T02:30:46;23.17;;;18.80;;
11034;SDS011;5571;48.110;-1.706;2023-04-06T02:33:11;23.77;;;18.47;;
11034;SDS011;5571;48.110;-1.706;2023-04-06T02:35:37;24.40;;;18.47;;
11034;SDS011;5571;48.110;-1.706;2023-04-06T02:38:03;23.87;;;17.97;;
11034;SDS011;5571;48.110;-1.706;2023-04-06T02:40:28;21.53;;;17.93;;
11034;SDS011;5571;48.110;-1.706;2023-04-06T02:42:54;25.97;;;18.17;;
11034;SDS011;5571;48.110;-1.706;2023-04-06T02:45:20;22.43;;;18.20;;
11034;SDS011;5571;48.110;-1.706;2023-04-06T02:47:45;21.93;;;17.93;;
11034;SDS011;5571;48.110;-1.706;2023-04-06T02:50:11;22.77;;;17.80;;
11034;SDS011;5571;48.110;-1.706;2023-04-06T02:52:36;23.60;;;17.77;;
11034;SDS011;5571;48.110;-1.706;2023-04-06T02:55:02;20.53;;;17.07;;
11034;SDS011;5571;48.110;-1.706;2023-04-06T02:57:28;20.27;;;16.53;;
11034;SDS011;5571;48.110;-1.706;2023-04-06T02:59:54;19.23;;;16.23;;
11034;SDS011;5571;48.110;-1.706;2023-04-06T03:02:19;21.53;;;16.67;;
11034;SDS011;5571;48.110;-1.706;2023-04-06T03:04:45;18.87;;;16.07;;
11034;SDS011;5571;48.110;-1.706;2023-04-06T03:07:10;19.80;;;15.60;;
11034;SDS011;5571;48.110;-1.706;2023-04-06T03:09:36;19.77;;;14.63;;
11034;SDS011;5571;48.110;-1.706;2023-04-06T03:12:02;21.73;;;15.63;;
11034;SDS011;5571;48.110;-1.706;2023-04-06T03:14:28;18.73;;;15.80;;
11034;SDS011;5571;48.110;-1.706;2023-04-06T03:16:54;18.37;;;15.10;;
11034;SDS011;5571;48.110;-1.706;2023-04-06T03:19:19;19.17;;;14.40;;
11034;SDS011;5571;48.110;-1.706;2023-04-06T03:21:45;19.97;;;14.20;;
11034;SDS011;5571;48.110;-1.706;2023-04-06T03:24:11;17.60;;;14.97;;
11034;SDS011;5571;48.110;-1.706;2023-04-06T03:26:38;19.27;;;14.13;;
11034;SDS011;5571;48.110;-1.706;2023-04-06T03:29:04;18.07;;;14.03;;
11034;SDS011;5571;48.110;-1.706;2023-04-06T03:31:30;19.53;;;14.10;;
11034;SDS011;5571;48.110;-1.706;2023-04-06T03:33:55;19.40;;;14.70;;
11034;SDS011;5571;48.110;-1.706;2023-04-06T03:36:21;17.93;;;13.97;;
11034;SDS011;5571;48.110;-1.706;2023-04-06T03:38:47;16.70;;;13.73;;
11034;SDS011;5571;48.110;-1.706;2023-04-06T03:41:12;17.93;;;13.97;;
11034;SDS011;5571;48.110;-1.706;2023-04-06T03:43:38;17.60;;;13.97;;
11034;SDS011;5571;48.110;-1.706;2023-04-06T03:46:04;17.67;;;13.07;;
11034;SDS011;5571;48.110;-1.706;2023-04-06T03:48:29;17.03;;;13.33;;
11034;SDS011;5571;48.110;-1.706;2023-04-06T03:50:55;16.93;;;13.57;;
11034;SDS011;5571;48.110;-1.706;2023-04-06T03:53:21;14.10;;;12.57;;
11034;SDS011;5571;48.110;-1.706;2023-04-06T03:55:46;17.07;;;13.07;;
11034;SDS011;5571;48.110;-1.706;2023-04-06T03:58:12;14.00;;;12.23;;
11034;SDS011;5571;48.110;-1.706;2023-04-06T04:00:37;15.50;;;12.73;;
11034;SDS011;5571;48.110;-1.706;2023-04-06T04:03:03;15.90;;;11.40;;
11034;SDS011;5571;48.110;-1.706;2023-04-06T04:05:29;12.60;;;11.27;;
11034;SDS011;5571;48.110;-1.706;2023-04-06T04:07:55;13.00;;;11.07;;
11034;SDS011;5571;48.110;-1.706;2023-04-06T04:10:20;12.97;;;10.70;;
11034;SDS011;5571;48.110;-1.706;2023-04-06T04:12:46;14.77;;;11.67;;
11034;SDS011;5571;48.110;-1.706;2023-04-06T04:15:11;13.87;;;10.83;;
11034;SDS011;5571;48.110;-1.706;2023-04-06T04:17:37;14.33;;;10.30;;
11034;SDS011;5571;48.110;-1.706;2023-04-06T04:20:03;11.80;;;9.70;;
11034;SDS011;5571;48.110;-1.706;2023-04-06T04:22:29;13.03;;;9.50;;
11034;SDS011;5571;48.110;-1.706;2023-04-06T04:24:54;12.50;;;10.00;;
11034;SDS011;5571;48.110;-1.706;2023-04-06T04:27:20;12.67;;;10.33;;
11034;SDS011;5571;48.110;-1.706;2023-04-06T04:29:46;11.20;;;9.30;;
11034;SDS011;5571;48.110;-1.706;2023-04-06T04:32:12;9.93;;;8.17;;
11034;SDS011;5571;48.110;-1.706;2023-04-06T04:34:38;10.57;;;9.03;;
11034;SDS011;5571;48.110;-1.706;2023-04-06T04:37:06;10.73;;;8.20;;
11034;SDS011;5571;48.110;-1.706;2023-04-06T04:39:32;12.13;;;8.40;;
11034;SDS011;5571;48.110;-1.706;2023-04-06T04:41:57;10.57;;;8.23;;
11034;SDS011;5571;48.110;-1.706;2023-04-06T04:44:23;8.80;;;7.83;;
11034;SDS011;5571;48.110;-1.706;2023-04-06T04:46:49;9.17;;;8.27;;
11034;SDS011;5571;48.110;-1.706;2023-04-06T04:49:15;13.97;;;8.87;;
11034;SDS011;5571;48.110;-1.706;2023-04-06T04:51:40;9.87;;;8.57;;
11034;SDS011;5571;48.110;-1.706;2023-04-06T04:54:06;10.67;;;8.40;;
11034;SDS011;5571;48.110;-1.706;2023-04-06T04:56:32;13.40;;;8.87;;
11034;SDS011;5571;48.110;-1.706;2023-04-06T04:58:57;11.10;;;8.27;;
11034;SDS011;5571;48.110;-1.706;2023-04-06T05:01:23;13.67;;;9.43;;
11034;SDS011;5571;48.110;-1.706;2023-04-06T05:03:49;10.90;;;8.20;;
11034;SDS011;5571;48.110;-1.706;2023-04-06T05:06:15;11.17;;;8.20;;
11034;SDS011;5571;48.110;-1.706;2023-04-06T05:08:41;11.87;;;8.57;;
11034;SDS011;5571;48.110;-1.706;2023-04-06T05:11:07;11.30;;;8.40;;
11034;SDS011;5571;48.110;-1.706;2023-04-06T05:13:33;10.77;;;8.13;;
11034;SDS011;5571;48.110;-1.706;2023-04-06T05:15:58;11.47;;;8.40;;
11034;SDS011;5571;48.110;-1.706;2023-04-06T05:18:25;11.20;;;8.83;;
11034;SDS011;5571;48.110;-1.706;2023-04-06T05:20:51;12.13;;;8.47;;
11034;SDS011;5571;48.110;-1.706;2023-04-06T05:23:16;11.60;;;8.43;;
11034;SDS011;5571;48.110;-1.706;2023-04-06T05:25:42;11.20;;;8.97;;
11034;SDS011;5571;48.110;-1.706;2023-04-06T05:28:08;10.30;;;8.27;;
11034;SDS011;5571;48.110;-1.706;2023-04-06T05:30:34;11.47;;;9.20;;
11034;SDS011;5571;48.110;-1.706;2023-04-06T05:33:00;10.57;;;8.50;;
11034;SDS011;5571;48.110;-1.706;2023-04-06T05:35:26;11.10;;;8.33;;
11034;SDS011;5571;48.110;-1.706;2023-04-06T05:37:52;9.63;;;8.40;;
11034;SDS011;5571;48.110;-1.706;2023-04-06T05:40:18;10.00;;;8.93;;
11034;SDS011;5571;48.110;-1.706;2023-04-06T05:42:43;11.27;;;8.83;;
11034;SDS011;5571;48.110;-1.706;2023-04-06T05:45:09;10.00;;;8.33;;
11034;SDS011;5571;48.110;-1.706;2023-04-06T05:47:36;10.20;;;9.00;;
11034;SDS011;5571;48.110;-1.706;2023-04-06T05:50:02;10.53;;;8.80;;
11034;SDS011;5571;48.110;-1.706;2023-04-06T05:52:28;10.17;;;8.50;;
11034;SDS011;5571;48.110;-1.706;2023-04-06T05:54:53;11.57;;;9.07;;
11034;SDS011;5571;48.110;-1.706;2023-04-06T05:57:19;11.30;;;8.37;;
11034;SDS011;5571;48.110;-1.706;2023-04-06T05:59:45;9.10;;;7.83;;
11034;SDS011;5571;48.110;-1.706;2023-04-06T06:02:10;9.93;;;8.30;;
11034;SDS011;5571;48.110;-1.706;2023-04-06T06:04:36;14.23;;;9.00;;
11034;SDS011;5571;48.110;-1.706;2023-04-06T06:07:02;9.33;;;8.00;;
11034;SDS011;5571;48.110;-1.706;2023-04-06T06:09:27;9.13;;;7.90;;
11034;SDS011;5571;48.110;-1.706;2023-04-06T06:11:53;15.83;;;8.57;;
11034;SDS011;5571;48.110;-1.706;2023-04-06T06:14:18;9.70;;;7.90;;
11034;SDS011;5571;48.110;-1.706;2023-04-06T06:16:45;9.73;;;7.27;;
11034;SDS011;5571;48.110;-1.706;2023-04-06T06:19:10;13.83;;;8.50;;
11034;SDS011;5571;48.110;-1.706;2023-04-06T06:21:36;10.33;;;7.87;;
11034;SDS011;5571;48.110;-1.706;2023-04-06T06:24:02;9.63;;;8.10;;
11034;SDS011;5571;48.110;-1.706;2023-04-06T06:26:27;10.63;;;7.93;;
11034;SDS011;5571;48.110;-1.706;2023-04-06T06:28:53;11.07;;;7.90;;
11034;SDS011;5571;48.110;-1.706;2023-04-06T06:31:19;11.13;;;7.53;;
11034;SDS011;5571;48.110;-1.706;2023-04-06T06:33:50;10.33;;;7.13;;
11034;SDS011;5571;48.110;-1.706;2023-04-06T06:36:16;8.73;;;7.80;;
11034;SDS011;5571;48.110;-1.706;2023-04-06T06:38:42;12.83;;;7.77;;
11034;SDS011;5571;48.110;-1.706;2023-04-06T06:41:08;10.57;;;8.43;;
11034;SDS011;5571;48.110;-1.706;2023-04-06T06:43:34;12.83;;;8.23;;
11034;SDS011;5571;48.110;-1.706;2023-04-06T06:46:00;11.13;;;7.70;;
11034;SDS011;5571;48.110;-1.706;2023-04-06T06:48:25;8.47;;;7.63;;
11034;SDS011;5571;48.110;-1.706;2023-04-06T06:50:51;9.43;;;7.00;;
11034;SDS011;5571;48.110;-1.706;2023-04-06T06:53:17;10.23;;;7.50;;
11034;SDS011;5571;48.110;-1.706;2023-04-06T06:55:43;10.10;;;7.20;;
11034;SDS011;5571;48.110;-1.706;2023-04-06T06:58:11;16.07;;;7.83;;
11034;SDS011;5571;48.110;-1.706;2023-04-06T07:00:37;10.50;;;7.50;;
11034;SDS011;5571;48.110;-1.706;2023-04-06T07:03:02;10.67;;;7.67;;
11034;SDS011;5571;48.110;-1.706;2023-04-06T07:05:28;11.97;;;7.63;;
11034;SDS011;5571;48.110;-1.706;2023-04-06T07:07:54;13.67;;;7.70;;
11034;SDS011;5571;48.110;-1.706;2023-04-06T07:10:21;13.13;;;7.50;;
11034;SDS011;5571;48.110;-1.706;2023-04-06T07:12:46;8.60;;;7.03;;
11034;SDS011;5571;48.110;-1.706;2023-04-06T07:15:12;13.83;;;7.87;;
11034;SDS011;5571;48.110;-1.706;2023-04-06T07:17:38;12.37;;;7.30;;
11034;SDS011;5571;48.110;-1.706;2023-04-06T07:20:06;15.33;;;7.87;;
11034;SDS011;5571;48.110;-1.706;2023-04-06T07:22:32;11.20;;;7.43;;
11034;SDS011;5571;48.110;-1.706;2023-04-06T07:24:57;9.23;;;7.40;;
11034;SDS011;5571;48.110;-1.706;2023-04-06T07:27:23;11.17;;;7.70;;
11034;SDS011;5571;48.110;-1.706;2023-04-06T07:29:49;11.83;;;7.70;;
11034;SDS011;5571;48.110;-1.706;2023-04-06T07:32:14;9.50;;;7.10;;
11034;SDS011;5571;48.110;-1.706;2023-04-06T07:34:40;13.27;;;7.57;;
11034;SDS011;5571;48.110;-1.706;2023-04-06T07:37:06;9.23;;;7.20;;
11034;SDS011;5571;48.110;-1.706;2023-04-06T07:39:31;10.73;;;7.57;;
11034;SDS011;5571;48.110;-1.706;2023-04-06T07:41:57;7.70;;;6.70;;
11034;SDS011;5571;48.110;-1.706;2023-04-06T07:44:22;9.80;;;6.87;;
11034;SDS011;5571;48.110;-1.706;2023-04-06T07:46:48;9.90;;;6.47;;
11034;SDS011;5571;48.110;-1.706;2023-04-06T07:49:14;13.60;;;7.20;;
11034;SDS011;5571;48.110;-1.706;2023-04-06T07:51:39;11.90;;;7.20;;
11034;SDS011;5571;48.110;-1.706;2023-04-06T07:54:05;10.83;;;7.43;;
11034;SDS011;5571;48.110;-1.706;2023-04-06T07:56:31;16.73;;;8.03;;
11034;SDS011;5571;48.110;-1.706;2023-04-06T07:58:57;8.60;;;7.53;;
11034;SDS011;5571;48.110;-1.706;2023-04-06T08:01:23;10.63;;;7.43;;
11034;SDS011;5571;48.110;-1.706;2023-04-06T08:03:49;10.90;;;6.73;;
11034;SDS011;5571;48.110;-1.706;2023-04-06T08:06:15;11.10;;;7.20;;
11034;SDS011;5571;48.110;-1.706;2023-04-06T08:08:41;13.07;;;7.30;;
11034;SDS011;5571;48.110;-1.706;2023-04-06T08:11:07;10.30;;;7.37;;
11034;SDS011;5571;48.110;-1.706;2023-04-06T08:13:34;9.07;;;6.93;;
11034;SDS011;5571;48.110;-1.706;2023-04-06T08:16:00;9.30;;;7.20;;
11034;SDS011;5571;48.110;-1.706;2023-04-06T08:18:26;7.93;;;6.37;;
11034;SDS011;5571;48.110;-1.706;2023-04-06T08:20:52;11.00;;;6.47;;
11034;SDS011;5571;48.110;-1.706;2023-04-06T08:23:17;13.17;;;6.50;;
11034;SDS011;5571;48.110;-1.706;2023-04-06T08:25:43;10.40;;;6.77;;
11034;SDS011;5571;48.110;-1.706;2023-04-06T08:28:08;10.90;;;6.70;;
11034;SDS011;5571;48.110;-1.706;2023-04-06T08:30:34;11.37;;;5.97;;
11034;SDS011;5571;48.110;-1.706;2023-04-06T08:33:00;8.63;;;6.43;;
11034;SDS011;5571;48.110;-1.706;2023-04-06T08:35:26;6.90;;;5.53;;
11034;SDS011;5571;48.110;-1.706;2023-04-06T08:37:52;8.13;;;6.27;;
11034;SDS011;5571;48.110;-1.706;2023-04-06T08:40:18;8.43;;;6.33;;
11034;SDS011;5571;48.110;-1.706;2023-04-06T08:42:44;6.60;;;5.80;;
11034;SDS011;5571;48.110;-1.706;2023-04-06T08:45:21;6.73;;;6.03;;
11034;SDS011;5571;48.110;-1.706;2023-04-06T08:47:47;6.27;;;5.67;;
11034;SDS011;5571;48.110;-1.706;2023-04-06T08:50:15;8.03;;;5.93;;
11034;SDS011;5571;48.110;-1.706;2023-04-06T08:52:43;7.80;;;5.40;;
11034;SDS011;5571;48.110;-1.706;2023-04-06T08:55:11;5.77;;;5.23;;
11034;SDS011;5571;48.110;-1.706;2023-04-06T08:57:37;8.67;;;5.73;;
11034;SDS011;5571;48.110;-1.706;2023-04-06T09:00:03;8.60;;;5.73;;
11034;SDS011;5571;48.110;-1.706;2023-04-06T09:02:31;6.33;;;5.13;;
11034;SDS011;5571;48.110;-1.706;2023-04-06T09:04:57;6.43;;;5.00;;
11034;SDS011;5571;48.110;-1.706;2023-04-06T09:07:24;6.97;;;4.80;;
11034;SDS011;5571;48.110;-1.706;2023-04-06T09:09:49;7.47;;;4.60;;
11034;SDS011;5571;48.110;-1.706;2023-04-06T09:14:52;5.87;;;5.13;;
11034;SDS011;5571;48.110;-1.706;2023-04-06T09:17:22;5.83;;;4.70;;
11034;SDS011;5571;48.110;-1.706;2023-04-06T09:19:49;10.10;;;4.57;;
11034;SDS011;5571;48.110;-1.706;2023-04-06T09:22:16;7.27;;;4.43;;
11034;SDS011;5571;48.110;-1.706;2023-04-06T09:25:17;7.07;;;4.07;;
11034;SDS011;5571;48.110;-1.706;2023-04-06T09:27:37;7.90;;;4.13;;
11034;SDS011;5571;48.110;-1.706;2023-04-06T09:32:32;5.60;;;4.60;;
11034;SDS011;5571;48.110;-1.706;2023-04-06T09:35:09;5.70;;;4.60;;
11034;SDS011;5571;48.110;-1.706;2023-04-06T09:37:35;4.80;;;4.27;;
11034;SDS011;5571;48.110;-1.706;2023-04-06T09:40:05;7.27;;;3.77;;
11034;SDS011;5571;48.110;-1.706;2023-04-06T09:42:32;6.93;;;4.00;;
11034;SDS011;5571;48.110;-1.706;2023-04-06T09:44:59;4.57;;;4.17;;
11034;SDS011;5571;48.110;-1.706;2023-04-06T09:47:25;5.23;;;4.70;;
11034;SDS011;5571;48.110;-1.706;2023-04-06T09:49:55;6.70;;;5.00;;
11034;SDS011;5571;48.110;-1.706;2023-04-06T09:52:30;7.63;;;5.07;;
11034;SDS011;5571;48.110;-1.706;2023-04-06T09:55:05;6.30;;;5.13;;
11034;SDS011;5571;48.110;-1.706;2023-04-06T10:00:27;6.90;;;5.60;;
11034;SDS011;5571;48.110;-1.706;2023-04-06T10:05:52;6.27;;;5.53;;
11034;SDS011;5571;48.110;-1.706;2023-04-06T10:08:24;6.20;;;5.60;;
11034;SDS011;5571;48.110;-1.706;2023-04-06T10:10:53;5.57;;;5.07;;
11034;SDS011;5571;48.110;-1.706;2023-04-06T10:13:20;7.23;;;5.40;;
11034;SDS011;5571;48.110;-1.706;2023-04-06T10:15:46;5.93;;;5.20;;
11034;SDS011;5571;48.110;-1.706;2023-04-06T10:18:13;6.17;;;5.57;;
11034;SDS011;5571;48.110;-1.706;2023-04-06T10:20:41;5.53;;;5.03;;
11034;SDS011;5571;48.110;-1.706;2023-04-06T10:23:19;5.10;;;4.60;;
11034;SDS011;5571;48.110;-1.706;2023-04-06T10:26:11;4.80;;;4.40;;
11034;SDS011;5571;48.110;-1.706;2023-04-06T10:28:42;3.37;;;3.03;;
11034;SDS011;5571;48.110;-1.706;2023-04-06T10:31:11;3.40;;;3.10;;
11034;SDS011;5571;48.110;-1.706;2023-04-06T10:33:37;3.70;;;3.40;;
11034;SDS011;5571;48.110;-1.706;2023-04-06T10:36:10;4.10;;;3.30;;
11034;SDS011;5571;48.110;-1.706;2023-04-06T10:38:40;3.10;;;2.90;;
11034;SDS011;5571;48.110;-1.706;2023-04-06T10:41:07;3.47;;;3.27;;
11034;SDS011;5571;48.110;-1.706;2023-04-06T10:43:35;2.93;;;2.60;;
11034;SDS011;5571;48.110;-1.706;2023-04-06T10:46:02;2.80;;;2.60;;
11034;SDS011;5571;48.110;-1.706;2023-04-06T10:51:14;3.07;;;2.77;;
11034;SDS011;5571;48.110;-1.706;2023-04-06T10:53:42;2.60;;;2.40;;
11034;SDS011;5571;48.110;-1.706;2023-04-06T10:56:09;2.90;;;2.53;;
11034;SDS011;5571;48.110;-1.706;2023-04-06T10:58:49;2.97;;;2.77;;
11034;SDS011;5571;48.110;-1.706;2023-04-06T11:01:17;3.50;;;3.20;;
11034;SDS011;5571;48.110;-1.706;2023-04-06T11:03:48;3.73;;;3.33;;
11034;SDS011;5571;48.110;-1.706;2023-04-06T11:06:18;3.53;;;3.23;;
11034;SDS011;5571;48.110;-1.706;2023-04-06T11:08:48;3.50;;;3.20;;
11034;SDS011;5571;48.110;-1.706;2023-04-06T11:11:15;3.50;;;3.20;;
11034;SDS011;5571;48.110;-1.706;2023-04-06T11:16:15;3.10;;;2.80;;
11034;SDS011;5571;48.110;-1.706;2023-04-06T11:24:12;4.27;;;3.10;;
11034;SDS011;5571;48.110;-1.706;2023-04-06T11:26:45;3.87;;;2.90;;
11034;SDS011;5571;48.110;-1.706;2023-04-06T11:29:20;3.80;;;2.77;;
11034;SDS011;5571;48.110;-1.706;2023-04-06T11:31:48;3.20;;;2.50;;
11034;SDS011;5571;48.110;-1.706;2023-04-06T11:34:17;2.57;;;2.37;;
11034;SDS011;5571;48.110;-1.706;2023-04-06T11:36:47;3.67;;;2.30;;
11034;SDS011;5571;48.110;-1.706;2023-04-06T11:39:24;3.83;;;1.97;;
11034;SDS011;5571;48.110;-1.706;2023-04-06T11:41:51;3.50;;;2.07;;
11034;SDS011;5571;48.110;-1.706;2023-04-06T11:47:03;3.10;;;1.80;;
11034;SDS011;5571;48.110;-1.706;2023-04-06T11:49:30;3.77;;;1.60;;
11034;SDS011;5571;48.110;-1.706;2023-04-06T11:51:57;3.23;;;1.67;;
11034;SDS011;5571;48.110;-1.706;2023-04-06T11:54:37;2.77;;;1.50;;
11034;SDS011;5571;48.110;-1.706;2023-04-06T11:57:03;2.53;;;1.60;;
11034;SDS011;5571;48.110;-1.706;2023-04-06T11:59:30;7.30;;;1.83;;
11034;SDS011;5571;48.110;-1.706;2023-04-06T12:01:58;4.70;;;2.10;;
11034;SDS011;5571;48.110;-1.706;2023-04-06T12:04:24;4.87;;;1.90;;
11034;SDS011;5571;48.110;-1.706;2023-04-06T12:06:50;3.40;;;1.90;;
11034;SDS011;5571;48.110;-1.706;2023-04-06T12:09:16;3.37;;;1.90;;
11034;SDS011;5571;48.110;-1.706;2023-04-06T12:11:45;4.97;;;2.00;;
11034;SDS011;5571;48.110;-1.706;2023-04-06T12:14:11;3.60;;;2.13;;
11034;SDS011;5571;48.110;-1.706;2023-04-06T12:16:37;4.93;;;2.10;;
11034;SDS011;5571;48.110;-1.706;2023-04-06T12:19:02;3.70;;;2.40;;
11034;SDS011;5571;48.110;-1.706;2023-04-06T12:21:28;3.37;;;1.77;;
11034;SDS011;5571;48.110;-1.706;2023-04-06T12:23:56;2.80;;;2.03;;
11034;SDS011;5571;48.110;-1.706;2023-04-06T12:26:25;3.63;;;2.27;;
11034;SDS011;5571;48.110;-1.706;2023-04-06T12:29:00;3.60;;;2.10;;
11034;SDS011;5571;48.110;-1.706;2023-04-06T12:31:31;5.13;;;2.40;;
11034;SDS011;5571;48.110;-1.706;2023-04-06T12:33:57;3.47;;;2.17;;
11034;SDS011;5571;48.110;-1.706;2023-04-06T12:36:23;5.00;;;2.40;;
11034;SDS011;5571;48.110;-1.706;2023-04-06T12:38:49;3.53;;;2.37;;
11034;SDS011;5571;48.110;-1.706;2023-04-06T12:41:18;5.10;;;2.30;;
11034;SDS011;5571;48.110;-1.706;2023-04-06T12:43:44;4.53;;;2.00;;
11034;SDS011;5571;48.110;-1.706;2023-04-06T12:46:10;3.57;;;2.20;;
11034;SDS011;5571;48.110;-1.706;2023-04-06T12:48:36;5.50;;;2.73;;
11034;SDS011;5571;48.110;-1.706;2023-04-06T12:51:03;4.80;;;2.40;;
11034;SDS011;5571;48.110;-1.706;2023-04-06T12:53:30;4.77;;;2.50;;
11034;SDS011;5571;48.110;-1.706;2023-04-06T12:55:56;3.60;;;2.53;;
11034;SDS011;5571;48.110;-1.706;2023-04-06T12:58:23;4.53;;;2.17;;
11034;SDS011;5571;48.110;-1.706;2023-04-06T13:00:51;3.53;;;2.13;;
11034;SDS011;5571;48.110;-1.706;2023-04-06T13:03:20;4.30;;;2.10;;
11034;SDS011;5571;48.110;-1.706;2023-04-06T13:05:47;3.00;;;1.70;;
11034;SDS011;5571;48.110;-1.706;2023-04-06T13:08:14;5.60;;;1.77;;
11034;SDS011;5571;48.110;-1.706;2023-04-06T13:10:44;2.30;;;1.80;;
11034;SDS011;5571;48.110;-1.706;2023-04-06T13:13:14;6.43;;;1.90;;
11034;SDS011;5571;48.110;-1.706;2023-04-06T13:15:40;3.20;;;1.80;;
11034;SDS011;5571;48.110;-1.706;2023-04-06T13:18:06;4.47;;;2.03;;
11034;SDS011;5571;48.110;-1.706;2023-04-06T13:20:33;4.17;;;1.83;;
11034;SDS011;5571;48.110;-1.706;2023-04-06T13:22:58;5.30;;;1.97;;
11034;SDS011;5571;48.110;-1.706;2023-04-06T13:25:24;4.90;;;2.10;;
11034;SDS011;5571;48.110;-1.706;2023-04-06T13:27:49;3.90;;;1.77;;
11034;SDS011;5571;48.110;-1.706;2023-04-06T13:30:15;4.67;;;1.83;;
11034;SDS011;5571;48.110;-1.706;2023-04-06T13:32:41;5.77;;;1.90;;
11034;SDS011;5571;48.110;-1.706;2023-04-06T13:35:07;4.97;;;1.57;;
11034;SDS011;5571;48.110;-1.706;2023-04-06T13:37:33;5.37;;;1.83;;
11034;SDS011;5571;48.110;-1.706;2023-04-06T13:39:59;4.53;;;1.17;;
11034;SDS011;5571;48.110;-1.706;2023-04-06T13:42:26;2.90;;;1.00;;
11034;SDS011;5571;48.110;-1.706;2023-04-06T13:44:52;5.63;;;1.70;;
11034;SDS011;5571;48.110;-1.706;2023-04-06T13:47:18;2.57;;;1.30;;
11034;SDS011;5571;48.110;-1.706;2023-04-06T13:49:45;6.00;;;1.60;;
11034;SDS011;5571;48.110;-1.706;2023-04-06T13:52:11;1.90;;;1.07;;
11034;SDS011;5571;48.110;-1.706;2023-04-06T13:54:37;5.83;;;1.60;;
11034;SDS011;5571;48.110;-1.706;2023-04-06T13:57:03;2.43;;;1.30;;
11034;SDS011;5571;48.110;-1.706;2023-04-06T13:59:33;3.13;;;1.47;;
11034;SDS011;5571;48.110;-1.706;2023-04-06T14:02:00;6.93;;;1.70;;
11034;SDS011;5571;48.110;-1.706;2023-04-06T14:04:29;4.73;;;1.70;;
11034;SDS011;5571;48.110;-1.706;2023-04-06T14:06:58;5.77;;;1.53;;
11034;SDS011;5571;48.110;-1.706;2023-04-06T14:09:25;3.60;;;1.73;;
11034;SDS011;5571;48.110;-1.706;2023-04-06T14:11:51;5.67;;;1.47;;
11034;SDS011;5571;48.110;-1.706;2023-04-06T14:14:17;4.47;;;1.50;;
11034;SDS011;5571;48.110;-1.706;2023-04-06T14:16:42;4.30;;;1.70;;
11034;SDS011;5571;48.110;-1.706;2023-04-06T14:19:09;5.03;;;1.70;;
11034;SDS011;5571;48.110;-1.706;2023-04-06T14:21:37;5.50;;;1.33;;
11034;SDS011;5571;48.110;-1.706;2023-04-06T14:24:04;6.00;;;1.70;;
11034;SDS011;5571;48.110;-1.706;2023-04-06T14:26:34;5.30;;;1.90;;
11034;SDS011;5571;48.110;-1.706;2023-04-06T14:29:02;3.83;;;2.33;;
11034;SDS011;5571;48.110;-1.706;2023-04-06T14:31:29;9.53;;;3.70;;
11034;SDS011;5571;48.110;-1.706;2023-04-06T14:33:54;22.90;;;11.13;;
11034;SDS011;5571;48.110;-1.706;2023-04-06T14:36:20;12.30;;;6.87;;
11034;SDS011;5571;48.110;-1.706;2023-04-06T14:38:46;8.97;;;4.60;;
11034;SDS011;5571;48.110;-1.706;2023-04-06T14:41:19;9.60;;;3.10;;
11034;SDS011;5571;48.110;-1.706;2023-04-06T14:43:47;7.03;;;2.30;;
11034;SDS011;5571;48.110;-1.706;2023-04-06T14:46:12;4.90;;;2.10;;
11034;SDS011;5571;48.110;-1.706;2023-04-06T14:48:38;6.53;;;2.03;;
11034;SDS011;5571;48.110;-1.706;2023-04-06T14:51:04;9.57;;;2.17;;
11034;SDS011;5571;48.110;-1.706;2023-04-06T14:53:30;4.03;;;1.80;;
11034;SDS011;5571;48.110;-1.706;2023-04-06T14:55:55;4.77;;;2.23;;